CBH weather

Public forecast

Using degrees Celsius for public forecast. Weather courtesy of forecast.io.

Current aviation weather report (METAR) for Béchar Boudghene Ben Ali Lotfi Airport

Retrieved 2020/08/09 02:00 UTC (41 minutes ago):

DAOR 090200Z 01014KT 9999 BKN033 34/05 Q1018

Aviation forecast (TAF) for Béchar Boudghene Ben Ali Lotfi Airport

Forecast is more than 12 hours old.

Retrieved 2017/11/09 18:03 UTC (3 years ago):

TAF DAOR 091700Z 0918/1009 35010KT 6000 FEW033 SCT100 TEMPO 0918/0924 3000 BLSA PROB40 TEMPO 0918/0924 35020G35KT 2000 -TSRA FEW030CB